createdAt,value
2023-01-13T00:03:57.973Z,71.40
2023-01-13T00:09:00.237Z,71.40
2023-01-13T00:14:02.425Z,71.40
2023-01-13T00:19:05.927Z,71.50
2023-01-13T00:24:10.502Z,71.60
2023-01-13T00:29:12.742Z,71.60
2023-01-13T00:34:16.341Z,71.70
2023-01-13T00:39:18.431Z,71.70
2023-01-13T00:44:20.794Z,71.80
2023-01-13T00:49:24.461Z,72.30
2023-01-13T00:54:26.670Z,72.20
2023-01-13T00:59:28.781Z,72.50
2023-01-13T01:04:32.305Z,72.60
2023-01-13T01:09:34.431Z,73.10
2023-01-13T01:14:36.548Z,73.20
2023-01-13T01:19:40.048Z,73.30
2023-01-13T01:24:42.177Z,73.40
2023-01-13T01:29:44.309Z,74.10
2023-01-13T01:34:47.817Z,75.20
2023-01-13T01:39:50.044Z,75.10
2023-01-13T01:45:01.172Z,75.10
2023-01-13T01:50:05.907Z,75.90
2023-01-13T01:55:16.407Z,76.30
2023-01-13T02:00:19.084Z,76.30
2023-01-13T02:05:23.885Z,76.60
2023-01-13T02:10:30.078Z,77.10
2023-01-13T02:15:42.187Z,77.00
2023-01-13T02:21:04.638Z,77.90
2023-01-13T02:27:05.031Z,78.00
2023-01-13T02:32:19.541Z,78.80
2023-01-13T02:37:29.601Z,79.00
2023-01-13T02:42:36.299Z,79.70
2023-01-13T02:47:44.726Z,79.80
2023-01-13T02:52:53.239Z,80.10
2023-01-13T02:57:58.983Z,80.30
2023-01-13T03:03:02.750Z,80.80
2023-01-13T03:08:36.432Z,80.30
2023-01-13T03:13:58.750Z,81.00
2023-01-13T03:19:15.925Z,80.60
2023-01-13T03:24:26.378Z,80.50
2023-01-13T03:29:35.876Z,80.60
2023-01-13T03:34:47.106Z,80.70
2023-01-13T03:39:57.702Z,80.30
2023-01-13T03:45:07.615Z,80.80
2023-01-13T03:50:18.588Z,80.80
2023-01-13T03:55:27.773Z,80.50
2023-01-13T04:00:44.293Z,80.20
2023-01-13T04:05:56.378Z,80.70
2023-01-13T04:11:05.284Z,80.40
2023-01-13T04:16:10.337Z,80.10
2023-01-13T04:21:13.902Z,80.20
2023-01-13T04:26:16.050Z,80.60
2023-01-13T04:31:18.290Z,81.50
2023-01-13T04:36:21.897Z,81.10
2023-01-13T04:41:24.173Z,81.00
2023-01-13T04:46:26.459Z,80.50
2023-01-13T04:51:30.184Z,80.70
2023-01-13T04:56:32.446Z,80.60
2023-01-13T05:01:34.727Z,80.70
2023-01-13T05:06:38.396Z,80.60
2023-01-13T05:11:40.716Z,81.00
2023-01-13T05:16:43.317Z,81.40
2023-01-13T05:21:46.950Z,81.20
2023-01-13T05:26:49.298Z,80.80
2023-01-13T05:31:51.553Z,81.00
2023-01-13T05:36:55.202Z,80.80
2023-01-13T05:41:57.462Z,80.50
2023-01-13T05:46:59.672Z,80.70
2023-01-13T05:52:03.482Z,80.80
2023-01-13T05:57:05.594Z,80.60
2023-01-13T06:02:07.839Z,81.20
2023-01-13T06:07:11.511Z,80.90
2023-01-13T06:12:14.471Z,80.80
2023-01-13T06:17:17.177Z,80.70
2023-01-13T06:22:25.148Z,80.50
2023-01-13T06:27:28.912Z,80.60
2023-01-13T06:32:38.723Z,80.20
2023-01-13T06:37:45.226Z,81.10
2023-01-13T06:42:47.807Z,80.50
2023-01-13T06:47:50.106Z,80.50
2023-01-13T06:52:53.971Z,80.40
2023-01-13T06:57:58.473Z,80.30
2023-01-13T07:03:10.273Z,80.10
2023-01-13T07:08:14.304Z,80.10
2023-01-13T07:13:17.086Z,80.20
2023-01-13T07:18:19.371Z,79.50
2023-01-13T07:23:23.487Z,79.40
2023-01-13T07:28:27.554Z,79.30
2023-01-13T07:33:30.804Z,79.40
2023-01-13T07:38:35.386Z,79.10
2023-01-13T07:43:37.919Z,79.40
2023-01-13T07:48:40.664Z,79.10
2023-01-13T07:53:45.546Z,79.30
2023-01-13T07:59:01.520Z,79.40
2023-01-13T08:04:23.640Z,79.20
2023-01-13T08:09:30.493Z,78.90
2023-01-13T08:14:36.113Z,79.80
2023-01-13T08:19:41.504Z,79.70
2023-01-13T08:24:50.567Z,79.50
2023-01-13T08:29:55.513Z,79.60
2023-01-13T08:34:58.099Z,79.50
2023-01-13T08:40:01.951Z,79.50
2023-01-13T08:45:06.034Z,79.60
2023-01-13T08:50:11.388Z,80.60
2023-01-13T08:55:16.189Z,80.30
2023-01-13T09:00:20.960Z,80.70
2023-01-13T09:05:24.399Z,80.40
2023-01-13T09:10:29.173Z,80.50
2023-01-13T09:15:31.639Z,80.20
2023-01-13T09:20:34.258Z,80.30
2023-01-13T09:25:38.760Z,80.40
2023-01-13T09:30:45.322Z,79.80
2023-01-13T09:35:57.568Z,79.70
2023-01-13T09:41:03.210Z,79.60
2023-01-13T09:46:16.298Z,79.50
2023-01-13T09:51:31.898Z,79.30
2023-01-13T09:56:36.037Z,79.30
2023-01-13T10:01:49.563Z,79.10
2023-01-13T10:06:57.613Z,79.00
2023-01-13T10:12:16.886Z,78.80
2023-01-13T10:17:33.495Z,78.60
2023-01-13T10:23:03.382Z,78.50
2023-01-13T10:28:12.906Z,78.20
2023-01-13T10:33:18.834Z,78.20
2023-01-13T10:38:25.211Z,78.80
2023-01-13T10:43:30.598Z,78.20
2023-01-13T10:48:40.443Z,78.00
2023-01-13T10:53:51.595Z,77.80
2023-01-13T10:59:14.276Z,77.40
2023-01-13T11:04:31.354Z,77.40
2023-01-13T11:09:34.536Z,77.40
2023-01-13T11:14:45.362Z,77.10
2023-01-13T11:19:55.550Z,77.30
2023-01-13T11:25:03.022Z,77.60
2023-01-13T11:30:22.627Z,77.60
2023-01-13T11:35:25.314Z,77.10
2023-01-13T11:40:38.745Z,77.10
2023-01-13T11:45:49.847Z,76.80
2023-01-13T11:51:02.524Z,77.20
2023-01-13T11:56:37.005Z,77.50
2023-01-13T12:02:16.466Z,77.50
2023-01-13T12:07:27.761Z,77.60
2023-01-13T12:12:48.588Z,77.30
2023-01-13T12:18:11.575Z,77.70
2023-01-13T12:23:26.976Z,77.70
2023-01-13T12:28:44.086Z,77.60
2023-01-13T12:34:20.040Z,77.30
2023-01-13T12:39:36.574Z,77.80
2023-01-13T12:45:07.332Z,77.80
2023-01-13T12:50:43.705Z,78.10
2023-01-13T12:55:52.234Z,78.30
2023-01-13T13:01:00.829Z,78.20
2023-01-13T13:06:16.571Z,78.80
2023-01-13T13:11:34.675Z,79.50
2023-01-13T13:16:49.866Z,79.40
2023-01-13T13:22:38.375Z,79.10
2023-01-13T13:27:49.178Z,78.70
2023-01-13T13:33:07.725Z,77.50
2023-01-13T13:38:31.558Z,77.30
2023-01-13T13:43:44.173Z,77.10
2023-01-13T13:48:55.401Z,77.20
2023-01-13T13:53:59.742Z,77.40
2023-01-13T13:59:02.434Z,77.30
2023-01-13T14:04:14.219Z,77.90
2023-01-13T14:09:22.270Z,77.90
2023-01-13T14:14:28.928Z,77.90
2023-01-13T14:19:46.293Z,78.00
2023-01-13T14:24:52.972Z,78.30
2023-01-13T14:29:57.347Z,78.10
2023-01-13T14:34:59.688Z,78.60
2023-01-13T14:40:04.443Z,78.40
2023-01-13T14:45:24.244Z,78.50
2023-01-13T14:50:30.867Z,78.80
2023-01-13T14:55:37.175Z,78.70
2023-01-13T15:00:39.397Z,79.30
2023-01-13T15:05:46.365Z,79.60
2023-01-13T15:10:54.257Z,79.60
2023-01-13T15:15:59.906Z,79.80
2023-01-13T15:21:02.206Z,79.10
2023-01-13T15:26:18.296Z,79.30
2023-01-13T15:31:21.618Z,79.70
2023-01-13T15:36:28.601Z,79.30
2023-01-13T15:41:32.225Z,78.80
2023-01-13T15:46:34.469Z,78.60
2023-01-13T15:51:37.096Z,78.30
2023-01-13T15:56:41.383Z,78.10
2023-01-13T16:01:44.494Z,78.20
2023-01-13T16:06:46.900Z,77.90
2023-01-13T16:11:50.541Z,77.60
2023-01-13T16:16:52.848Z,77.60
2023-01-13T16:21:55.351Z,77.20
2023-01-13T16:26:58.939Z,76.60
2023-01-13T16:32:01.277Z,76.40
2023-01-13T16:37:03.686Z,76.00
2023-01-13T16:42:07.384Z,75.80
2023-01-13T16:47:14.027Z,75.80
2023-01-13T16:52:16.394Z,75.90
2023-01-13T16:57:20.013Z,75.80
2023-01-13T17:02:22.203Z,76.00
2023-01-13T17:07:24.463Z,75.70
2023-01-13T17:12:28.080Z,76.00
2023-01-13T17:17:30.336Z,76.30
2023-01-13T17:22:32.655Z,77.50
2023-01-13T17:27:36.345Z,78.00
2023-01-13T17:32:38.645Z,77.80
2023-01-13T17:37:40.939Z,77.10
2023-01-13T17:42:44.880Z,77.00
2023-01-13T17:47:47.597Z,76.90
2023-01-13T17:52:50.098Z,77.60
2023-01-13T17:57:53.719Z,77.70
2023-01-13T18:02:56.072Z,77.50
2023-01-13T18:07:58.367Z,76.70
2023-01-13T18:13:02.431Z,76.80
2023-01-13T18:18:04.757Z,76.60
2023-01-13T18:23:11.245Z,76.40
2023-01-13T18:28:14.886Z,77.20
2023-01-13T18:33:17.196Z,77.10
2023-01-13T18:38:19.440Z,76.60
2023-01-13T18:43:23.154Z,76.30
2023-01-13T18:48:25.294Z,76.50
2023-01-13T18:53:27.560Z,76.40
2023-01-13T18:58:31.903Z,76.10
2023-01-13T19:03:34.884Z,75.90
2023-01-13T19:08:39.120Z,76.10
2023-01-13T19:13:44.541Z,76.30
2023-01-13T19:18:49.107Z,76.20
2023-01-13T19:23:55.351Z,76.50
2023-01-13T19:29:03.539Z,76.90
2023-01-13T19:34:08.717Z,76.90
2023-01-13T19:39:13.378Z,77.00
2023-01-13T19:44:19.487Z,77.00
2023-01-13T19:49:23.550Z,76.70
2023-01-13T19:54:27.126Z,76.50
2023-01-13T19:59:31.023Z,76.20
2023-01-13T20:04:33.521Z,75.70
2023-01-13T20:09:36.376Z,75.70
2023-01-13T20:14:40.532Z,75.20
2023-01-13T20:19:43.129Z,75.10
2023-01-13T20:24:45.636Z,74.90
2023-01-13T20:29:49.313Z,74.60
2023-01-13T20:34:51.552Z,74.60
2023-01-13T20:39:54.060Z,74.60
2023-01-13T20:44:58.410Z,74.70
2023-01-13T20:50:00.649Z,74.50
2023-01-13T20:55:03.122Z,74.30
2023-01-13T21:00:09.938Z,74.40
2023-01-13T21:05:12.058Z,74.90
2023-01-13T21:10:14.594Z,75.00
2023-01-13T21:15:18.299Z,75.20
2023-01-13T21:20:20.656Z,74.90
2023-01-13T21:25:22.979Z,74.60
2023-01-13T21:30:26.563Z,74.70
2023-01-13T21:35:28.791Z,75.20
2023-01-13T21:40:31.042Z,73.90
2023-01-13T21:45:34.607Z,74.30
2023-01-13T21:50:37.611Z,74.30
2023-01-13T21:55:39.806Z,74.50
2023-01-13T22:00:44.832Z,74.10
2023-01-13T22:05:54.383Z,72.90
2023-01-13T22:10:56.555Z,73.30
2023-01-13T22:16:04.357Z,72.60
2023-01-13T22:21:06.899Z,72.40
2023-01-13T22:26:09.620Z,72.30
2023-01-13T22:31:16.528Z,72.30
2023-01-13T22:36:18.812Z,72.10
2023-01-13T22:41:21.165Z,71.70
2023-01-13T22:46:24.765Z,71.40
2023-01-13T22:51:26.976Z,71.80
2023-01-13T22:56:29.182Z,71.80
2023-01-13T23:01:34.534Z,71.30
2023-01-13T23:06:36.685Z,71.80
2023-01-13T23:11:39.822Z,72.00
2023-01-13T23:16:43.515Z,72.40
2023-01-13T23:21:45.775Z,71.80
2023-01-13T23:26:47.897Z,71.70
2023-01-13T23:31:51.488Z,71.40
2023-01-13T23:36:53.650Z,71.50
2023-01-13T23:41:55.809Z,71.40
2023-01-13T23:46:59.377Z,71.50
2023-01-13T23:52:01.567Z,71.30
2023-01-13T23:57:03.782Z,71.40
